sensor_id;sensor_type;location;lat;lon;timestamp;temperature;humidity
70475;DHT22;57944;48.722;9.316;2022-07-24T00:00:53;20.50;99.90
70475;DHT22;57944;48.722;9.316;2022-07-24T00:03:23;20.50;99.90
70475;DHT22;57944;48.722;9.316;2022-07-24T00:05:58;20.40;99.90
70475;DHT22;57944;48.722;9.316;2022-07-24T00:08:28;20.30;99.90
70475;DHT22;57944;48.722;9.316;2022-07-24T00:10:58;20.30;99.90
70475;DHT22;57944;48.722;9.316;2022-07-24T00:13:28;20.40;99.90
70475;DHT22;57944;48.722;9.316;2022-07-24T00:15:59;20.40;99.90
70475;DHT22;57944;48.722;9.316;2022-07-24T00:18:29;20.50;99.90
70475;DHT22;57944;48.722;9.316;2022-07-24T00:21:02;20.50;99.90
70475;DHT22;57944;48.722;9.316;2022-07-24T00:23:33;20.50;99.90
70475;DHT22;57944;48.722;9.316;2022-07-24T00:26:04;20.50;99.90
70475;DHT22;57944;48.722;9.316;2022-07-24T00:28:35;20.60;99.90
70475;DHT22;57944;48.722;9.316;2022-07-24T00:31:05;20.60;99.90
70475;DHT22;57944;48.722;9.316;2022-07-24T00:33:36;20.50;99.90
70475;DHT22;57944;48.722;9.316;2022-07-24T00:36:09;20.20;99.90
70475;DHT22;57944;48.722;9.316;2022-07-24T00:38:41;20.00;99.90
70475;DHT22;57944;48.722;9.316;2022-07-24T00:41:11;19.90;99.90
70475;DHT22;57944;48.722;9.316;2022-07-24T00:44:00;19.80;99.90
70475;DHT22;57944;48.722;9.316;2022-07-24T00:46:34;20.10;99.90
70475;DHT22;57944;48.722;9.316;2022-07-24T00:49:07;20.30;99.90
70475;DHT22;57944;48.722;9.316;2022-07-24T00:51:48;20.40;99.90
70475;DHT22;57944;48.722;9.316;2022-07-24T00:54:21;20.40;99.90
70475;DHT22;57944;48.722;9.316;2022-07-24T00:56:53;20.40;99.90
70475;DHT22;57944;48.722;9.316;2022-07-24T00:59:24;20.30;99.90
70475;DHT22;57944;48.722;9.316;2022-07-24T01:01:55;20.30;99.90
70475;DHT22;57944;48.722;9.316;2022-07-24T01:04:34;20.00;99.90
70475;DHT22;57944;48.722;9.316;2022-07-24T01:07:13;19.90;99.90
70475;DHT22;57944;48.722;9.316;2022-07-24T01:09:43;19.80;99.90
70475;DHT22;57944;48.722;9.316;2022-07-24T01:12:13;19.70;99.90
70475;DHT22;57944;48.722;9.316;2022-07-24T01:14:44;19.70;99.90
70475;DHT22;57944;48.722;9.316;2022-07-24T01:17:14;19.50;99.90
70475;DHT22;57944;48.722;9.316;2022-07-24T01:19:44;19.30;99.90
70475;DHT22;57944;48.722;9.316;2022-07-24T01:22:17;19.30;99.90
70475;DHT22;57944;48.722;9.316;2022-07-24T01:24:47;19.30;99.90
70475;DHT22;57944;48.722;9.316;2022-07-24T01:27:18;19.20;99.90
70475;DHT22;57944;48.722;9.316;2022-07-24T01:29:48;19.10;99.90
70475;DHT22;57944;48.722;9.316;2022-07-24T01:32:19;19.10;99.90
70475;DHT22;57944;48.722;9.316;2022-07-24T01:34:49;19.10;99.90
70475;DHT22;57944;48.722;9.316;2022-07-24T01:37:22;19.20;99.90
70475;DHT22;57944;48.722;9.316;2022-07-24T01:39:52;19.10;99.90
70475;DHT22;57944;48.722;9.316;2022-07-24T01:42:22;19.10;99.90
70475;DHT22;57944;48.722;9.316;2022-07-24T01:44:52;19.00;99.90
70475;DHT22;57944;48.722;9.316;2022-07-24T01:47:22;18.80;99.90
70475;DHT22;57944;48.722;9.316;2022-07-24T01:49:52;18.80;99.90
70475;DHT22;57944;48.722;9.316;2022-07-24T01:52:25;18.90;99.90
70475;DHT22;57944;48.722;9.316;2022-07-24T01:54:55;18.80;99.90
70475;DHT22;57944;48.722;9.316;2022-07-24T01:57:25;18.80;99.90
70475;DHT22;57944;48.722;9.316;2022-07-24T01:59:56;18.90;99.90
70475;DHT22;57944;48.722;9.316;2022-07-24T02:02:27;19.00;99.90
70475;DHT22;57944;48.722;9.316;2022-07-24T02:04:57;18.90;99.90
70475;DHT22;57944;48.722;9.316;2022-07-24T02:07:30;18.90;99.90
70475;DHT22;57944;48.722;9.316;2022-07-24T02:10:01;18.90;99.90
70475;DHT22;57944;48.722;9.316;2022-07-24T02:12:32;18.80;99.90
70475;DHT22;57944;48.722;9.316;2022-07-24T02:15:02;18.70;99.90
70475;DHT22;57944;48.722;9.316;2022-07-24T02:17:33;18.80;99.90
70475;DHT22;57944;48.722;9.316;2022-07-24T02:20:04;18.80;99.90
70475;DHT22;57944;48.722;9.316;2022-07-24T02:22:39;18.90;99.90
70475;DHT22;57944;48.722;9.316;2022-07-24T02:25:10;19.00;99.90
70475;DHT22;57944;48.722;9.316;2022-07-24T02:27:41;19.00;99.90
70475;DHT22;57944;48.722;9.316;2022-07-24T02:30:14;19.10;99.90
70475;DHT22;57944;48.722;9.316;2022-07-24T02:32:45;19.10;99.90
70475;DHT22;57944;48.722;9.316;2022-07-24T02:35:16;19.00;99.90
70475;DHT22;57944;48.722;9.316;2022-07-24T02:37:49;19.10;99.90
70475;DHT22;57944;48.722;9.316;2022-07-24T02:40:20;19.20;99.90
70475;DHT22;57944;48.722;9.316;2022-07-24T02:42:50;19.40;99.90
70475;DHT22;57944;48.722;9.316;2022-07-24T02:45:20;19.50;99.90
70475;DHT22;57944;48.722;9.316;2022-07-24T02:47:52;19.30;99.90
70475;DHT22;57944;48.722;9.316;2022-07-24T02:50:28;19.20;99.90
70475;DHT22;57944;48.722;9.316;2022-07-24T02:53:03;19.10;99.90
70475;DHT22;57944;48.722;9.316;2022-07-24T02:55:33;18.90;99.90
70475;DHT22;57944;48.722;9.316;2022-07-24T02:58:03;18.80;99.90
70475;DHT22;57944;48.722;9.316;2022-07-24T03:00:33;18.70;99.90
70475;DHT22;57944;48.722;9.316;2022-07-24T03:03:04;18.60;99.90
70475;DHT22;57944;48.722;9.316;2022-07-24T03:05:34;18.40;99.90
70475;DHT22;57944;48.722;9.316;2022-07-24T03:08:07;18.30;99.90
70475;DHT22;57944;48.722;9.316;2022-07-24T03:10:37;18.30;99.90
70475;DHT22;57944;48.722;9.316;2022-07-24T03:13:07;18.30;99.90
70475;DHT22;57944;48.722;9.316;2022-07-24T03:15:39;18.20;99.90
70475;DHT22;57944;48.722;9.316;2022-07-24T03:18:09;18.20;99.90
70475;DHT22;57944;48.722;9.316;2022-07-24T03:20:48;18.30;99.90
70475;DHT22;57944;48.722;9.316;2022-07-24T03:23:21;18.20;99.90
70475;DHT22;57944;48.722;9.316;2022-07-24T03:25:51;18.20;99.90
70475;DHT22;57944;48.722;9.316;2022-07-24T03:28:22;18.20;99.90
70475;DHT22;57944;48.722;9.316;2022-07-24T03:30:52;18.30;99.90
70475;DHT22;57944;48.722;9.316;2022-07-24T03:33:22;18.30;99.90
70475;DHT22;57944;48.722;9.316;2022-07-24T03:35:52;18.20;99.90
70475;DHT22;57944;48.722;9.316;2022-07-24T03:38:26;18.30;99.90
70475;DHT22;57944;48.722;9.316;2022-07-24T03:40:56;18.70;99.90
70475;DHT22;57944;48.722;9.316;2022-07-24T03:43:26;18.90;99.90
70475;DHT22;57944;48.722;9.316;2022-07-24T03:45:56;18.90;99.90
70475;DHT22;57944;48.722;9.316;2022-07-24T03:48:26;18.80;99.90
70475;DHT22;57944;48.722;9.316;2022-07-24T03:50:56;19.00;99.90
70475;DHT22;57944;48.722;9.316;2022-07-24T03:53:30;18.90;99.90
70475;DHT22;57944;48.722;9.316;2022-07-24T03:56:04;18.80;99.90
70475;DHT22;57944;48.722;9.316;2022-07-24T03:58:34;18.70;99.90
70475;DHT22;57944;48.722;9.316;2022-07-24T04:01:06;18.50;99.90
70475;DHT22;57944;48.722;9.316;2022-07-24T04:03:36;18.50;99.90
70475;DHT22;57944;48.722;9.316;2022-07-24T04:06:07;18.40;99.90
70475;DHT22;57944;48.722;9.316;2022-07-24T04:08:40;18.40;99.90
70475;DHT22;57944;48.722;9.316;2022-07-24T04:11:10;18.40;99.90
70475;DHT22;57944;48.722;9.316;2022-07-24T04:13:40;18.40;99.90
70475;DHT22;57944;48.722;9.316;2022-07-24T04:16:11;18.40;99.90
70475;DHT22;57944;48.722;9.316;2022-07-24T04:18:41;18.40;99.90
70475;DHT22;57944;48.722;9.316;2022-07-24T04:21:11;18.30;99.90
70475;DHT22;57944;48.722;9.316;2022-07-24T04:23:44;18.40;99.90
70475;DHT22;57944;48.722;9.316;2022-07-24T04:26:14;18.50;99.90
70475;DHT22;57944;48.722;9.316;2022-07-24T04:28:44;18.70;99.90
70475;DHT22;57944;48.722;9.316;2022-07-24T04:31:15;18.90;99.90
70475;DHT22;57944;48.722;9.316;2022-07-24T04:33:45;19.10;99.90
70475;DHT22;57944;48.722;9.316;2022-07-24T04:36:16;19.20;99.90
70475;DHT22;57944;48.722;9.316;2022-07-24T04:38:48;19.30;99.90
70475;DHT22;57944;48.722;9.316;2022-07-24T04:41:19;19.60;99.90
70475;DHT22;57944;48.722;9.316;2022-07-24T04:43:49;20.20;99.90
70475;DHT22;57944;48.722;9.316;2022-07-24T04:46:19;20.80;99.90
70475;DHT22;57944;48.722;9.316;2022-07-24T04:48:49;21.40;99.90
70475;DHT22;57944;48.722;9.316;2022-07-24T04:51:19;21.80;99.90
70475;DHT22;57944;48.722;9.316;2022-07-24T04:53:52;22.30;99.90
70475;DHT22;57944;48.722;9.316;2022-07-24T04:56:22;22.70;99.90
70475;DHT22;57944;48.722;9.316;2022-07-24T04:58:57;23.10;99.90
70475;DHT22;57944;48.722;9.316;2022-07-24T05:01:29;23.20;99.90
70475;DHT22;57944;48.722;9.316;2022-07-24T05:03:59;23.60;99.90
70475;DHT22;57944;48.722;9.316;2022-07-24T05:06:30;23.70;99.90
70475;DHT22;57944;48.722;9.316;2022-07-24T05:09:03;24.10;99.90
70475;DHT22;57944;48.722;9.316;2022-07-24T05:11:34;24.50;99.90
70475;DHT22;57944;48.722;9.316;2022-07-24T05:14:04;24.60;99.90
70475;DHT22;57944;48.722;9.316;2022-07-24T05:16:34;24.90;99.90
70475;DHT22;57944;48.722;9.316;2022-07-24T05:19:07;25.00;99.90
70475;DHT22;57944;48.722;9.316;2022-07-24T05:21:37;25.40;99.90
70475;DHT22;57944;48.722;9.316;2022-07-24T05:24:10;25.70;99.90
70475;DHT22;57944;48.722;9.316;2022-07-24T05:26:40;25.60;99.90
70475;DHT22;57944;48.722;9.316;2022-07-24T05:29:11;25.80;99.90
70475;DHT22;57944;48.722;9.316;2022-07-24T05:31:41;26.00;99.90
70475;DHT22;57944;48.722;9.316;2022-07-24T05:34:11;25.80;99.90
70475;DHT22;57944;48.722;9.316;2022-07-24T05:36:42;26.40;99.90
70475;DHT22;57944;48.722;9.316;2022-07-24T05:39:15;26.50;99.90
70475;DHT22;57944;48.722;9.316;2022-07-24T05:41:45;26.70;99.90
70475;DHT22;57944;48.722;9.316;2022-07-24T05:44:15;27.00;99.90
70475;DHT22;57944;48.722;9.316;2022-07-24T05:46:45;27.50;99.90
70475;DHT22;57944;48.722;9.316;2022-07-24T05:49:15;27.90;99.90
70475;DHT22;57944;48.722;9.316;2022-07-24T05:51:46;28.40;99.90
70475;DHT22;57944;48.722;9.316;2022-07-24T05:54:19;28.90;99.90
70475;DHT22;57944;48.722;9.316;2022-07-24T05:56:49;29.00;99.90
70475;DHT22;57944;48.722;9.316;2022-07-24T05:59:19;28.70;99.90
70475;DHT22;57944;48.722;9.316;2022-07-24T06:01:49;28.70;99.90
70475;DHT22;57944;48.722;9.316;2022-07-24T06:04:19;28.40;99.90
70475;DHT22;57944;48.722;9.316;2022-07-24T06:06:49;28.90;99.90
70475;DHT22;57944;48.722;9.316;2022-07-24T06:09:22;29.30;99.90
70475;DHT22;57944;48.722;9.316;2022-07-24T06:11:52;29.70;99.90
70475;DHT22;57944;48.722;9.316;2022-07-24T06:14:23;29.30;99.90
70475;DHT22;57944;48.722;9.316;2022-07-24T06:16:53;29.90;99.90
70475;DHT22;57944;48.722;9.316;2022-07-24T06:19:23;29.10;99.90
70475;DHT22;57944;48.722;9.316;2022-07-24T06:21:54;29.00;99.90
70475;DHT22;57944;48.722;9.316;2022-07-24T06:24:27;29.20;99.90
70475;DHT22;57944;48.722;9.316;2022-07-24T06:26:58;29.50;99.90
70475;DHT22;57944;48.722;9.316;2022-07-24T06:29:38;29.90;99.80
70475;DHT22;57944;48.722;9.316;2022-07-24T06:32:08;29.90;98.70
70475;DHT22;57944;48.722;9.316;2022-07-24T06:34:38;30.10;98.70
70475;DHT22;57944;48.722;9.316;2022-07-24T06:37:08;31.20;97.90
70475;DHT22;57944;48.722;9.316;2022-07-24T06:39:41;31.50;97.00
70475;DHT22;57944;48.722;9.316;2022-07-24T06:42:11;31.60;96.50
70475;DHT22;57944;48.722;9.316;2022-07-24T06:44:41;32.70;95.40
70475;DHT22;57944;48.722;9.316;2022-07-24T06:47:11;33.40;94.10
70475;DHT22;57944;48.722;9.316;2022-07-24T06:49:41;33.80;92.80
70475;DHT22;57944;48.722;9.316;2022-07-24T06:52:11;33.40;92.60
70475;DHT22;57944;48.722;9.316;2022-07-24T06:54:44;33.50;92.20
70475;DHT22;57944;48.722;9.316;2022-07-24T06:57:15;33.50;91.60
70475;DHT22;57944;48.722;9.316;2022-07-24T06:59:51;34.30;90.60
70475;DHT22;57944;48.722;9.316;2022-07-24T07:02:22;35.30;89.60
70475;DHT22;57944;48.722;9.316;2022-07-24T07:04:52;34.60;88.40
70475;DHT22;57944;48.722;9.316;2022-07-24T07:07:22;35.20;88.20
70475;DHT22;57944;48.722;9.316;2022-07-24T07:09:55;35.90;87.30
70475;DHT22;57944;48.722;9.316;2022-07-24T07:12:25;35.40;86.50
70475;DHT22;57944;48.722;9.316;2022-07-24T07:14:55;34.60;87.10
70475;DHT22;57944;48.722;9.316;2022-07-24T07:17:26;33.40;88.70
70475;DHT22;57944;48.722;9.316;2022-07-24T07:19:56;32.60;90.90
70475;DHT22;57944;48.722;9.316;2022-07-24T07:22:26;32.50;91.40
70475;DHT22;57944;48.722;9.316;2022-07-24T07:25:00;33.20;91.30
70475;DHT22;57944;48.722;9.316;2022-07-24T07:27:30;34.50;90.40
70475;DHT22;57944;48.722;9.316;2022-07-24T07:30:00;35.80;87.20
70475;DHT22;57944;48.722;9.316;2022-07-24T07:32:30;36.60;83.70
70475;DHT22;57944;48.722;9.316;2022-07-24T07:35:01;37.40;82.60
70475;DHT22;57944;48.722;9.316;2022-07-24T07:37:46;38.10;80.20
70475;DHT22;57944;48.722;9.316;2022-07-24T07:40:19;38.60;77.60
70475;DHT22;57944;48.722;9.316;2022-07-24T07:42:49;39.10;75.70
70475;DHT22;57944;48.722;9.316;2022-07-24T07:45:19;39.70;73.80
70475;DHT22;57944;48.722;9.316;2022-07-24T07:48:00;40.30;71.50
70475;DHT22;57944;48.722;9.316;2022-07-24T07:50:30;40.30;70.40
70475;DHT22;57944;48.722;9.316;2022-07-24T07:53:00;40.20;70.10
70475;DHT22;57944;48.722;9.316;2022-07-24T07:55:38;39.90;70.00
70475;DHT22;57944;48.722;9.316;2022-07-24T07:58:09;40.20;69.40
70475;DHT22;57944;48.722;9.316;2022-07-24T08:00:40;39.40;66.50
70475;DHT22;57944;48.722;9.316;2022-07-24T08:03:10;38.70;67.20
70475;DHT22;57944;48.722;9.316;2022-07-24T08:05:48;38.90;66.80
70475;DHT22;57944;48.722;9.316;2022-07-24T08:08:25;38.00;67.70
70475;DHT22;57944;48.722;9.316;2022-07-24T08:10:57;38.70;67.40
70475;DHT22;57944;48.722;9.316;2022-07-24T08:13:28;39.00;65.90
70475;DHT22;57944;48.722;9.316;2022-07-24T08:15:58;39.30;63.70
70475;DHT22;57944;48.722;9.316;2022-07-24T08:18:28;39.80;65.00
70475;DHT22;57944;48.722;9.316;2022-07-24T08:20:58;40.00;64.80
70475;DHT22;57944;48.722;9.316;2022-07-24T08:23:29;39.20;65.40
70475;DHT22;57944;48.722;9.316;2022-07-24T08:26:02;39.20;64.90
70475;DHT22;57944;48.722;9.316;2022-07-24T08:28:32;39.80;65.00
70475;DHT22;57944;48.722;9.316;2022-07-24T08:31:02;41.10;63.40
70475;DHT22;57944;48.722;9.316;2022-07-24T08:33:33;41.60;61.30
70475;DHT22;57944;48.722;9.316;2022-07-24T08:36:04;41.30;61.50
70475;DHT22;57944;48.722;9.316;2022-07-24T08:38:34;41.10;60.50
70475;DHT22;57944;48.722;9.316;2022-07-24T08:41:08;40.70;60.00
70475;DHT22;57944;48.722;9.316;2022-07-24T08:43:39;40.90;61.10
70475;DHT22;57944;48.722;9.316;2022-07-24T08:46:09;41.00;59.80
70475;DHT22;57944;48.722;9.316;2022-07-24T08:48:44;40.90;59.50
70475;DHT22;57944;48.722;9.316;2022-07-24T08:51:15;41.10;58.80
70475;DHT22;57944;48.722;9.316;2022-07-24T08:53:46;41.60;58.50
70475;DHT22;57944;48.722;9.316;2022-07-24T08:56:19;42.10;56.30
70475;DHT22;57944;48.722;9.316;2022-07-24T08:58:50;43.00;53.10
70475;DHT22;57944;48.722;9.316;2022-07-24T09:01:20;42.80;52.10
70475;DHT22;57944;48.722;9.316;2022-07-24T09:03:50;41.60;53.20
70475;DHT22;57944;48.722;9.316;2022-07-24T09:06:20;41.50;52.80
70475;DHT22;57944;48.722;9.316;2022-07-24T09:08:58;40.20;54.40
70475;DHT22;57944;48.722;9.316;2022-07-24T09:11:36;40.30;53.00
70475;DHT22;57944;48.722;9.316;2022-07-24T09:14:06;40.40;52.50
70475;DHT22;57944;48.722;9.316;2022-07-24T09:17:01;41.20;52.10
70475;DHT22;57944;48.722;9.316;2022-07-24T09:19:55;42.70;50.80
70475;DHT22;57944;48.722;9.316;2022-07-24T09:22:33;43.00;49.10
70475;DHT22;57944;48.722;9.316;2022-07-24T09:25:10;44.00;47.70
70475;DHT22;57944;48.722;9.316;2022-07-24T09:27:49;45.00;46.70
70475;DHT22;57944;48.722;9.316;2022-07-24T09:30:27;44.30;45.90
70475;DHT22;57944;48.722;9.316;2022-07-24T09:33:00;44.40;45.30
70475;DHT22;57944;48.722;9.316;2022-07-24T09:35:34;44.70;45.40
70475;DHT22;57944;48.722;9.316;2022-07-24T09:38:08;45.90;45.10
70475;DHT22;57944;48.722;9.316;2022-07-24T09:40:41;46.10;43.20
70475;DHT22;57944;48.722;9.316;2022-07-24T09:43:20;45.90;43.30
70475;DHT22;57944;48.722;9.316;2022-07-24T09:46:02;45.90;43.00
70475;DHT22;57944;48.722;9.316;2022-07-24T09:48:36;46.40;42.30
70475;DHT22;57944;48.722;9.316;2022-07-24T09:51:10;46.00;42.60
70475;DHT22;57944;48.722;9.316;2022-07-24T09:53:44;45.20;43.40
70475;DHT22;57944;48.722;9.316;2022-07-24T09:56:16;44.90;42.80
70475;DHT22;57944;48.722;9.316;2022-07-24T09:58:52;44.80;43.70
70475;DHT22;57944;48.722;9.316;2022-07-24T10:01:25;45.40;42.90
70475;DHT22;57944;48.722;9.316;2022-07-24T10:03:57;46.60;42.20
70475;DHT22;57944;48.722;9.316;2022-07-24T10:06:28;46.80;41.00
70475;DHT22;57944;48.722;9.316;2022-07-24T10:08:59;45.10;41.60
70475;DHT22;57944;48.722;9.316;2022-07-24T10:11:34;43.70;42.60
70475;DHT22;57944;48.722;9.316;2022-07-24T10:14:08;42.50;43.60
70475;DHT22;57944;48.722;9.316;2022-07-24T10:16:41;43.10;44.20
70475;DHT22;57944;48.722;9.316;2022-07-24T10:19:43;43.30;43.20
70475;DHT22;57944;48.722;9.316;2022-07-24T10:22:16;43.60;43.40
70475;DHT22;57944;48.722;9.316;2022-07-24T10:24:56;43.10;43.10
70475;DHT22;57944;48.722;9.316;2022-07-24T10:27:29;43.90;43.30
70475;DHT22;57944;48.722;9.316;2022-07-24T10:30:05;44.00;42.50
70475;DHT22;57944;48.722;9.316;2022-07-24T10:32:38;45.20;42.20
70475;DHT22;57944;48.722;9.316;2022-07-24T10:35:13;42.70;42.60
70475;DHT22;57944;48.722;9.316;2022-07-24T10:37:55;43.00;44.00
70475;DHT22;57944;48.722;9.316;2022-07-24T10:40:37;43.50;42.10
70475;DHT22;57944;48.722;9.316;2022-07-24T10:43:15;43.80;41.20
70475;DHT22;57944;48.722;9.316;2022-07-24T10:46:09;44.70;41.00
70475;DHT22;57944;48.722;9.316;2022-07-24T10:48:43;44.40;40.30
70475;DHT22;57944;48.722;9.316;2022-07-24T10:51:17;44.20;40.40
70475;DHT22;57944;48.722;9.316;2022-07-24T10:53:53;44.50;40.20
70475;DHT22;57944;48.722;9.316;2022-07-24T10:56:26;44.30;39.30
70475;DHT22;57944;48.722;9.316;2022-07-24T10:59:00;44.20;39.70
70475;DHT22;57944;48.722;9.316;2022-07-24T11:01:43;43.70;39.40
70475;DHT22;57944;48.722;9.316;2022-07-24T11:04:25;43.40;40.00
70475;DHT22;57944;48.722;9.316;2022-07-24T11:07:07;43.60;40.00
70475;DHT22;57944;48.722;9.316;2022-07-24T11:10:03;43.30;39.90
70475;DHT22;57944;48.722;9.316;2022-07-24T11:12:42;43.70;40.10
70475;DHT22;57944;48.722;9.316;2022-07-24T11:15:14;44.60;40.00
70475;DHT22;57944;48.722;9.316;2022-07-24T11:18:13;44.10;39.40
70475;DHT22;57944;48.722;9.316;2022-07-24T11:20:44;44.50;39.20
70475;DHT22;57944;48.722;9.316;2022-07-24T11:23:19;45.00;38.90
70475;DHT22;57944;48.722;9.316;2022-07-24T11:25:50;44.70;38.80
70475;DHT22;57944;48.722;9.316;2022-07-24T11:28:20;43.70;39.20
70475;DHT22;57944;48.722;9.316;2022-07-24T11:30:51;44.30;39.40
70475;DHT22;57944;48.722;9.316;2022-07-24T11:33:24;44.20;39.30
70475;DHT22;57944;48.722;9.316;2022-07-24T11:35:55;43.60;40.00
70475;DHT22;57944;48.722;9.316;2022-07-24T11:38:28;44.20;39.70
70475;DHT22;57944;48.722;9.316;2022-07-24T11:41:04;44.80;39.40
70475;DHT22;57944;48.722;9.316;2022-07-24T11:43:35;44.90;39.50
70475;DHT22;57944;48.722;9.316;2022-07-24T11:46:32;43.20;37.30
70475;DHT22;57944;48.722;9.316;2022-07-24T11:49:07;42.20;39.20
70475;DHT22;57944;48.722;9.316;2022-07-24T11:51:42;42.30;40.50
70475;DHT22;57944;48.722;9.316;2022-07-24T11:54:14;42.80;39.70
70475;DHT22;57944;48.722;9.316;2022-07-24T11:56:54;43.80;39.40
70475;DHT22;57944;48.722;9.316;2022-07-24T11:59:27;43.70;38.70
70475;DHT22;57944;48.722;9.316;2022-07-24T12:02:03;44.90;38.40
70475;DHT22;57944;48.722;9.316;2022-07-24T12:04:39;45.40;37.10
70475;DHT22;57944;48.722;9.316;2022-07-24T12:07:12;45.20;36.80
70475;DHT22;57944;48.722;9.316;2022-07-24T12:09:45;45.90;36.70
70475;DHT22;57944;48.722;9.316;2022-07-24T12:12:23;46.20;36.50
70475;DHT22;57944;48.722;9.316;2022-07-24T12:15:01;46.50;36.20
70475;DHT22;57944;48.722;9.316;2022-07-24T12:17:52;45.20;36.10
70475;DHT22;57944;48.722;9.316;2022-07-24T12:20:27;43.10;38.00
70475;DHT22;57944;48.722;9.316;2022-07-24T12:23:01;41.90;39.60
70475;DHT22;57944;48.722;9.316;2022-07-24T12:25:33;41.20;40.30
70475;DHT22;57944;48.722;9.316;2022-07-24T12:28:05;41.20;40.90
70475;DHT22;57944;48.722;9.316;2022-07-24T12:30:38;41.40;40.90
70475;DHT22;57944;48.722;9.316;2022-07-24T12:33:19;42.10;40.30
70475;DHT22;57944;48.722;9.316;2022-07-24T12:35:56;43.20;39.60
70475;DHT22;57944;48.722;9.316;2022-07-24T12:38:30;43.40;39.20
70475;DHT22;57944;48.722;9.316;2022-07-24T12:41:03;43.70;39.00
70475;DHT22;57944;48.722;9.316;2022-07-24T12:43:46;44.70;38.10
70475;DHT22;57944;48.722;9.316;2022-07-24T12:46:18;45.70;37.30
70475;DHT22;57944;48.722;9.316;2022-07-24T12:48:57;46.20;37.10
70475;DHT22;57944;48.722;9.316;2022-07-24T12:51:49;46.20;37.00
70475;DHT22;57944;48.722;9.316;2022-07-24T12:54:22;45.70;36.60
70475;DHT22;57944;48.722;9.316;2022-07-24T12:56:56;44.70;36.90
70475;DHT22;57944;48.722;9.316;2022-07-24T12:59:28;43.40;38.50
70475;DHT22;57944;48.722;9.316;2022-07-24T13:02:03;43.20;39.30
70475;DHT22;57944;48.722;9.316;2022-07-24T13:04:40;43.30;38.20
70475;DHT22;57944;48.722;9.316;2022-07-24T13:07:15;42.60;39.20
70475;DHT22;57944;48.722;9.316;2022-07-24T13:09:48;42.60;39.10
70475;DHT22;57944;48.722;9.316;2022-07-24T13:12:20;42.30;38.60
70475;DHT22;57944;48.722;9.316;2022-07-24T13:14:50;42.60;38.70
70475;DHT22;57944;48.722;9.316;2022-07-24T13:17:21;43.70;38.40
70475;DHT22;57944;48.722;9.316;2022-07-24T13:19:53;44.90;37.50
70475;DHT22;57944;48.722;9.316;2022-07-24T13:22:25;45.70;36.20
70475;DHT22;57944;48.722;9.316;2022-07-24T13:24:55;46.20;34.80
70475;DHT22;57944;48.722;9.316;2022-07-24T13:27:26;44.90;35.90
70475;DHT22;57944;48.722;9.316;2022-07-24T13:30:15;44.40;36.40
70475;DHT22;57944;48.722;9.316;2022-07-24T13:32:45;42.40;36.70
70475;DHT22;57944;48.722;9.316;2022-07-24T13:35:16;42.20;38.20
70475;DHT22;57944;48.722;9.316;2022-07-24T13:37:49;42.50;37.90
70475;DHT22;57944;48.722;9.316;2022-07-24T13:40:24;43.70;38.30
70475;DHT22;57944;48.722;9.316;2022-07-24T13:42:54;44.80;36.40
70475;DHT22;57944;48.722;9.316;2022-07-24T13:45:28;44.80;35.80
70475;DHT22;57944;48.722;9.316;2022-07-24T13:47:58;44.40;36.10
70475;DHT22;57944;48.722;9.316;2022-07-24T13:50:29;44.50;36.60
70475;DHT22;57944;48.722;9.316;2022-07-24T13:53:01;44.80;35.80
70475;DHT22;57944;48.722;9.316;2022-07-24T13:55:32;45.50;35.60
70475;DHT22;57944;48.722;9.316;2022-07-24T13:58:03;46.20;35.10
70475;DHT22;57944;48.722;9.316;2022-07-24T14:00:33;45.00;35.70
70475;DHT22;57944;48.722;9.316;2022-07-24T14:03:03;44.30;35.70
70475;DHT22;57944;48.722;9.316;2022-07-24T14:05:54;44.60;36.20
70475;DHT22;57944;48.722;9.316;2022-07-24T14:08:27;43.10;36.50
70475;DHT22;57944;48.722;9.316;2022-07-24T14:10:57;42.10;38.10
70475;DHT22;57944;48.722;9.316;2022-07-24T14:13:27;42.00;37.90
70475;DHT22;57944;48.722;9.316;2022-07-24T14:15:58;42.90;37.50
70475;DHT22;57944;48.722;9.316;2022-07-24T14:18:28;42.20;36.90
70475;DHT22;57944;48.722;9.316;2022-07-24T14:20:59;42.20;37.40
70475;DHT22;57944;48.722;9.316;2022-07-24T14:23:33;41.50;38.10
70475;DHT22;57944;48.722;9.316;2022-07-24T14:26:03;41.40;38.40
70475;DHT22;57944;48.722;9.316;2022-07-24T14:28:33;41.40;38.80
70475;DHT22;57944;48.722;9.316;2022-07-24T14:31:04;40.40;39.60
70475;DHT22;57944;48.722;9.316;2022-07-24T14:33:34;41.10;39.60
70475;DHT22;57944;48.722;9.316;2022-07-24T14:36:06;41.70;38.90
70475;DHT22;57944;48.722;9.316;2022-07-24T14:38:39;42.00;38.40
70475;DHT22;57944;48.722;9.316;2022-07-24T14:41:09;41.90;38.00
70475;DHT22;57944;48.722;9.316;2022-07-24T14:43:39;41.10;38.90
70475;DHT22;57944;48.722;9.316;2022-07-24T14:46:09;41.70;39.20
70475;DHT22;57944;48.722;9.316;2022-07-24T14:48:44;40.80;39.10
70475;DHT22;57944;48.722;9.316;2022-07-24T14:51:16;40.20;40.40
70475;DHT22;57944;48.722;9.316;2022-07-24T14:53:49;40.20;41.10
70475;DHT22;57944;48.722;9.316;2022-07-24T14:56:19;40.40;40.80
70475;DHT22;57944;48.722;9.316;2022-07-24T14:58:53;41.30;40.60
70475;DHT22;57944;48.722;9.316;2022-07-24T15:01:23;42.10;39.90
70475;DHT22;57944;48.722;9.316;2022-07-24T15:03:54;41.60;39.40
70475;DHT22;57944;48.722;9.316;2022-07-24T15:06:24;40.40;39.40
70475;DHT22;57944;48.722;9.316;2022-07-24T15:08:59;39.60;39.70
70475;DHT22;57944;48.722;9.316;2022-07-24T15:11:29;39.40;40.60
70475;DHT22;57944;48.722;9.316;2022-07-24T15:13:59;40.00;40.90
70475;DHT22;57944;48.722;9.316;2022-07-24T15:16:30;40.50;39.60
70475;DHT22;57944;48.722;9.316;2022-07-24T15:19:02;41.20;40.10
70475;DHT22;57944;48.722;9.316;2022-07-24T15:21:34;40.70;40.30
70475;DHT22;57944;48.722;9.316;2022-07-24T15:24:13;40.10;41.10
70475;DHT22;57944;48.722;9.316;2022-07-24T15:26:49;39.60;41.60
70475;DHT22;57944;48.722;9.316;2022-07-24T15:29:19;39.60;41.60
70475;DHT22;57944;48.722;9.316;2022-07-24T15:31:50;40.00;42.20
70475;DHT22;57944;48.722;9.316;2022-07-24T15:34:23;40.40;41.50
70475;DHT22;57944;48.722;9.316;2022-07-24T15:36:54;39.60;41.80
70475;DHT22;57944;48.722;9.316;2022-07-24T15:39:27;39.30;41.60
70475;DHT22;57944;48.722;9.316;2022-07-24T15:41:57;39.40;41.60
70475;DHT22;57944;48.722;9.316;2022-07-24T15:44:27;39.80;41.50
70475;DHT22;57944;48.722;9.316;2022-07-24T15:46:57;39.50;41.40
70475;DHT22;57944;48.722;9.316;2022-07-24T15:49:27;39.20;42.80
70475;DHT22;57944;48.722;9.316;2022-07-24T15:51:57;39.70;42.30
70475;DHT22;57944;48.722;9.316;2022-07-24T15:54:30;40.20;41.90
70475;DHT22;57944;48.722;9.316;2022-07-24T15:57:00;40.20;41.50
70475;DHT22;57944;48.722;9.316;2022-07-24T15:59:31;40.00;42.00
70475;DHT22;57944;48.722;9.316;2022-07-24T16:02:04;40.70;42.00
70475;DHT22;57944;48.722;9.316;2022-07-24T16:04:34;40.80;41.60